createdAt,value
2019-06-10T01:55:56.976Z,18.50
2019-06-10T01:58:31.503Z,18.20
2019-06-10T02:01:06.646Z,18.20
2019-06-10T02:03:41.515Z,18.10
2019-06-10T02:06:16.129Z,18.10
2019-06-10T02:08:45.185Z,18.00
2019-06-10T02:11:18.777Z,17.90
2019-06-10T02:13:48.779Z,17.80
2019-06-10T02:16:24.073Z,17.80
2019-06-10T02:19:00.405Z,17.80
2019-06-10T02:21:31.131Z,17.70
2019-06-10T02:24:02.302Z,17.70
2019-06-10T02:26:32.085Z,17.60
2019-06-10T02:29:05.043Z,17.50
2019-06-10T02:31:37.411Z,17.50
2019-06-10T02:34:07.140Z,17.40
2019-06-10T02:36:38.558Z,17.30
2019-06-10T02:39:10.405Z,17.30
2019-06-10T02:41:44.683Z,17.20
2019-06-10T02:44:19.644Z,17.30
2019-06-10T02:46:49.901Z,17.30
2019-06-10T02:49:42.717Z,17.30
2019-06-10T02:51:55.606Z,17.20
2019-06-10T02:54:31.387Z,17.20
2019-06-10T02:57:04.107Z,17.30
2019-06-10T02:59:36.386Z,17.40
2019-06-10T03:02:13.518Z,17.40
2019-06-10T03:04:43.460Z,17.40
2019-06-10T03:07:15.784Z,17.50
2019-06-10T03:09:48.162Z,17.40
2019-06-10T03:12:23.971Z,17.30
2019-06-10T03:14:53.954Z,17.10
2019-06-10T03:17:28.159Z,17.00
2019-06-10T03:20:03.629Z,16.90
2019-06-10T03:22:35.999Z,16.80
2019-06-10T03:25:06.536Z,16.80
2019-06-10T03:27:42.398Z,16.90
2019-06-10T03:30:16.887Z,17.00
2019-06-10T03:32:49.619Z,17.10
2019-06-10T03:35:26.845Z,17.30
2019-06-10T03:37:59.415Z,17.40
2019-06-10T03:40:46.727Z,17.50
2019-06-10T03:43:23.517Z,17.60
2019-06-10T03:45:53.081Z,17.60
2019-06-10T03:48:29.539Z,17.70
2019-06-10T03:51:03.068Z,17.70
2019-06-10T03:53:35.776Z,17.70
2019-06-10T03:56:12.832Z,17.60
2019-06-10T03:58:47.911Z,17.60
2019-06-10T04:01:19.487Z,17.50
2019-06-10T04:03:56.872Z,17.60
2019-06-10T04:06:27.688Z,17.70
2019-06-10T04:09:05.298Z,17.80
2019-06-10T04:11:43.365Z,17.80
2019-06-10T04:14:17.511Z,17.90
2019-06-10T04:16:48.918Z,17.90
2019-06-10T04:19:23.584Z,18.10
2019-06-10T04:21:59.341Z,18.00
2019-06-10T04:24:32.831Z,17.90
2019-06-10T04:27:04.924Z,17.90
2019-06-10T04:29:39.335Z,17.90
2019-06-10T04:32:12.270Z,18.00
2019-06-10T05:16:38.402Z,18.80
2019-06-10T05:19:08.351Z,18.90
2019-06-10T05:21:42.423Z,19.00
2019-06-10T05:42:18.046Z,19.40
2019-06-10T05:45:03.377Z,19.40
2019-06-10T05:47:35.863Z,19.50
2019-06-10T05:50:05.269Z,19.60
2019-06-10T05:52:35.894Z,19.70
2019-06-10T05:55:06.686Z,19.80
2019-06-10T05:58:06.093Z,19.90
2019-06-10T06:00:39.427Z,20.00
2019-06-10T06:03:18.866Z,20.10
2019-06-10T06:05:52.544Z,20.20
2019-06-10T06:08:25.130Z,20.20
2019-06-10T06:10:54.861Z,20.20
2019-06-10T06:13:25.375Z,20.30
2019-06-10T06:15:56.751Z,20.20
2019-06-10T06:18:29.992Z,20.20
2019-06-10T06:21:20.622Z,20.20
2019-06-10T06:23:38.274Z,20.20
2019-06-10T06:26:15.866Z,20.30
2019-06-10T06:28:53.546Z,20.20
2019-06-10T06:31:36.052Z,20.30
2019-06-10T06:34:16.292Z,20.40
2019-06-10T06:36:52.936Z,20.50
2019-06-10T06:39:25.325Z,20.50
2019-06-10T06:41:58.229Z,20.70
2019-06-10T06:44:33.026Z,20.70
2019-06-10T06:47:03.876Z,20.70
2019-06-10T06:49:38.621Z,20.70
2019-06-10T06:52:38.901Z,20.90
2019-06-10T07:29:45.384Z,21.50
2019-06-10T08:23:12.974Z,22.10
2019-06-10T08:25:46.043Z,22.10
2019-06-10T08:28:22.303Z,22.10
2019-06-10T08:31:50.117Z,22.10
2019-06-10T08:34:33.025Z,22.20
2019-06-10T08:37:58.228Z,22.30
2019-06-10T08:40:32.427Z,22.30
2019-06-10T08:43:04.310Z,22.50
2019-06-10T08:48:33.812Z,22.60
2019-06-10T08:51:03.287Z,22.80
2019-06-10T09:06:38.797Z,23.20
2019-06-10T09:20:27.149Z,23.50
2019-06-10T09:23:55.863Z,23.50
2019-06-10T15:58:53.828Z,28.00
2019-06-10T16:13:04.448Z,27.50
2019-06-10T17:08:42.249Z,27.50
2019-06-10T19:09:24.655Z,22.40
2019-06-10T19:56:57.317Z,21.70
2019-06-10T20:00:13.001Z,21.70
2019-06-10T20:02:46.936Z,21.70
2019-06-10T20:10:29.454Z,21.60
2019-06-10T20:14:05.573Z,21.70
2019-06-10T20:16:35.573Z,21.80
2019-06-10T20:19:07.353Z,21.80
